sensor_id;sensor_type;location;lat;lon;timestamp;temperature;humidity
506;DHT22;551;48.524;9.056;2022-10-22T00:01:52;15.10;1.00
506;DHT22;551;48.524;9.056;2022-10-22T00:04:18;15.10;1.00
506;DHT22;551;48.524;9.056;2022-10-22T00:06:44;15.00;1.00
506;DHT22;551;48.524;9.056;2022-10-22T00:09:11;15.00;1.00
506;DHT22;551;48.524;9.056;2022-10-22T00:11:36;15.10;1.00
506;DHT22;551;48.524;9.056;2022-10-22T00:14:02;15.00;1.00
506;DHT22;551;48.524;9.056;2022-10-22T00:16:28;15.10;1.00
506;DHT22;551;48.524;9.056;2022-10-22T00:18:53;15.00;1.00
506;DHT22;551;48.524;9.056;2022-10-22T00:21:19;15.00;1.00
506;DHT22;551;48.524;9.056;2022-10-22T00:23:44;15.00;1.00
506;DHT22;551;48.524;9.056;2022-10-22T00:26:10;15.00;1.00
506;DHT22;551;48.524;9.056;2022-10-22T00:28:36;14.90;1.00
506;DHT22;551;48.524;9.056;2022-10-22T00:31:02;14.90;1.00
506;DHT22;551;48.524;9.056;2022-10-22T00:33:28;15.00;1.00
506;DHT22;551;48.524;9.056;2022-10-22T00:35:54;14.90;1.00
506;DHT22;551;48.524;9.056;2022-10-22T00:38:20;14.90;1.00
506;DHT22;551;48.524;9.056;2022-10-22T00:40:46;14.80;1.00
506;DHT22;551;48.524;9.056;2022-10-22T00:43:13;14.80;1.00
506;DHT22;551;48.524;9.056;2022-10-22T00:45:39;14.80;1.00
506;DHT22;551;48.524;9.056;2022-10-22T00:48:12;14.80;1.00
506;DHT22;551;48.524;9.056;2022-10-22T00:50:45;14.70;1.00
506;DHT22;551;48.524;9.056;2022-10-22T00:53:14;14.80;1.00
506;DHT22;551;48.524;9.056;2022-10-22T00:55:43;14.80;1.00
506;DHT22;551;48.524;9.056;2022-10-22T00:58:09;14.80;1.00
506;DHT22;551;48.524;9.056;2022-10-22T01:00:36;14.70;1.00
506;DHT22;551;48.524;9.056;2022-10-22T01:03:02;14.70;1.00
506;DHT22;551;48.524;9.056;2022-10-22T01:05:30;14.60;1.00
506;DHT22;551;48.524;9.056;2022-10-22T01:07:57;14.70;1.00
506;DHT22;551;48.524;9.056;2022-10-22T01:10:50;14.60;1.00
506;DHT22;551;48.524;9.056;2022-10-22T01:18:22;14.90;1.00
506;DHT22;551;48.524;9.056;2022-10-22T01:23:44;14.80;1.00
506;DHT22;551;48.524;9.056;2022-10-22T01:29:05;14.80;1.00
506;DHT22;551;48.524;9.056;2022-10-22T01:31:36;14.60;1.00
506;DHT22;551;48.524;9.056;2022-10-22T01:34:03;14.80;1.00
506;DHT22;551;48.524;9.056;2022-10-22T01:36:30;14.70;1.00
506;DHT22;551;48.524;9.056;2022-10-22T01:38:59;14.60;1.00
506;DHT22;551;48.524;9.056;2022-10-22T01:41:27;14.60;1.00
506;DHT22;551;48.524;9.056;2022-10-22T01:43:52;14.70;1.00
506;DHT22;551;48.524;9.056;2022-10-22T01:46:20;14.70;1.00
506;DHT22;551;48.524;9.056;2022-10-22T02:04:59;14.50;1.00
506;DHT22;551;48.524;9.056;2022-10-22T02:07:30;14.40;1.00
506;DHT22;551;48.524;9.056;2022-10-22T02:09:58;14.30;1.00
506;DHT22;551;48.524;9.056;2022-10-22T02:12:25;14.30;1.00
506;DHT22;551;48.524;9.056;2022-10-22T02:14:52;14.40;1.00
506;DHT22;551;48.524;9.056;2022-10-22T02:17:21;14.30;1.00
506;DHT22;551;48.524;9.056;2022-10-22T02:19:51;14.30;1.00
506;DHT22;551;48.524;9.056;2022-10-22T02:22:17;14.30;1.00
506;DHT22;551;48.524;9.056;2022-10-22T02:24:44;14.40;1.00
506;DHT22;551;48.524;9.056;2022-10-22T02:27:57;14.40;1.00
506;DHT22;551;48.524;9.056;2022-10-22T02:30:17;14.50;1.00
506;DHT22;551;48.524;9.056;2022-10-22T02:32:53;14.40;1.00
506;DHT22;551;48.524;9.056;2022-10-22T02:35:21;14.40;1.00
506;DHT22;551;48.524;9.056;2022-10-22T02:37:48;14.40;1.00
506;DHT22;551;48.524;9.056;2022-10-22T02:40:14;14.40;1.00
506;DHT22;551;48.524;9.056;2022-10-22T02:42:41;14.40;1.00
506;DHT22;551;48.524;9.056;2022-10-22T02:45:07;14.40;1.00
506;DHT22;551;48.524;9.056;2022-10-22T02:47:33;14.50;1.00
506;DHT22;551;48.524;9.056;2022-10-22T02:49:58;14.40;1.00
506;DHT22;551;48.524;9.056;2022-10-22T02:52:24;14.40;1.00
506;DHT22;551;48.524;9.056;2022-10-22T02:54:49;14.30;1.00
506;DHT22;551;48.524;9.056;2022-10-22T02:57:15;14.40;1.00
506;DHT22;551;48.524;9.056;2022-10-22T02:59:40;14.40;1.00
506;DHT22;551;48.524;9.056;2022-10-22T03:02:06;14.30;1.00
506;DHT22;551;48.524;9.056;2022-10-22T03:04:32;14.30;1.00
506;DHT22;551;48.524;9.056;2022-10-22T03:06:58;14.30;1.00
506;DHT22;551;48.524;9.056;2022-10-22T03:09:23;14.20;1.00
506;DHT22;551;48.524;9.056;2022-10-22T03:11:49;14.40;1.00
506;DHT22;551;48.524;9.056;2022-10-22T03:14:14;14.30;1.00
506;DHT22;551;48.524;9.056;2022-10-22T03:16:40;14.40;1.00
506;DHT22;551;48.524;9.056;2022-10-22T03:19:06;14.40;1.00
506;DHT22;551;48.524;9.056;2022-10-22T03:21:48;14.50;1.00
506;DHT22;551;48.524;9.056;2022-10-22T03:24:28;14.50;1.00
506;DHT22;551;48.524;9.056;2022-10-22T03:26:54;14.60;1.00
506;DHT22;551;48.524;9.056;2022-10-22T03:29:21;14.50;1.00
506;DHT22;551;48.524;9.056;2022-10-22T03:31:48;14.40;1.00
506;DHT22;551;48.524;9.056;2022-10-22T03:34:13;14.40;1.00
506;DHT22;551;48.524;9.056;2022-10-22T03:36:39;14.40;1.00
506;DHT22;551;48.524;9.056;2022-10-22T03:39:06;14.40;1.00
506;DHT22;551;48.524;9.056;2022-10-22T03:41:32;14.40;1.00
506;DHT22;551;48.524;9.056;2022-10-22T03:44:00;14.30;1.00
506;DHT22;551;48.524;9.056;2022-10-22T03:46:27;14.40;1.00
506;DHT22;551;48.524;9.056;2022-10-22T03:48:52;14.50;1.00
506;DHT22;551;48.524;9.056;2022-10-22T03:51:18;14.50;1.00
506;DHT22;551;48.524;9.056;2022-10-22T03:53:43;14.30;1.00
506;DHT22;551;48.524;9.056;2022-10-22T03:56:10;14.60;1.00
506;DHT22;551;48.524;9.056;2022-10-22T03:58:37;14.20;1.00
506;DHT22;551;48.524;9.056;2022-10-22T04:01:08;14.20;1.00
506;DHT22;551;48.524;9.056;2022-10-22T04:03:35;14.20;1.00
506;DHT22;551;48.524;9.056;2022-10-22T04:06:08;14.10;1.00
506;DHT22;551;48.524;9.056;2022-10-22T04:08:34;14.10;1.00
506;DHT22;551;48.524;9.056;2022-10-22T04:11:00;14.10;1.00
506;DHT22;551;48.524;9.056;2022-10-22T04:13:25;14.00;1.00
506;DHT22;551;48.524;9.056;2022-10-22T04:15:51;14.00;1.00
506;DHT22;551;48.524;9.056;2022-10-22T04:18:18;14.00;1.00
506;DHT22;551;48.524;9.056;2022-10-22T04:20:44;14.00;1.00
506;DHT22;551;48.524;9.056;2022-10-22T04:23:09;13.90;1.00
506;DHT22;551;48.524;9.056;2022-10-22T04:25:35;13.90;1.00
506;DHT22;551;48.524;9.056;2022-10-22T04:28:01;13.80;1.00
506;DHT22;551;48.524;9.056;2022-10-22T04:30:26;13.90;1.00
506;DHT22;551;48.524;9.056;2022-10-22T04:32:52;13.80;1.00
506;DHT22;551;48.524;9.056;2022-10-22T04:35:17;13.80;1.00
506;DHT22;551;48.524;9.056;2022-10-22T04:37:43;13.70;1.00
506;DHT22;551;48.524;9.056;2022-10-22T04:40:09;13.80;1.00
506;DHT22;551;48.524;9.056;2022-10-22T04:42:35;13.70;1.00
506;DHT22;551;48.524;9.056;2022-10-22T04:45:00;13.70;1.00
506;DHT22;551;48.524;9.056;2022-10-22T04:47:26;13.70;1.00
506;DHT22;551;48.524;9.056;2022-10-22T04:49:51;13.50;1.00
506;DHT22;551;48.524;9.056;2022-10-22T04:52:17;13.60;1.00
506;DHT22;551;48.524;9.056;2022-10-22T04:54:42;13.60;1.00
506;DHT22;551;48.524;9.056;2022-10-22T04:57:08;13.60;1.00
506;DHT22;551;48.524;9.056;2022-10-22T04:59:33;13.60;1.00
506;DHT22;551;48.524;9.056;2022-10-22T05:01:59;13.60;1.00
506;DHT22;551;48.524;9.056;2022-10-22T05:04:24;13.60;1.00
506;DHT22;551;48.524;9.056;2022-10-22T05:06:50;13.70;1.00
506;DHT22;551;48.524;9.056;2022-10-22T05:09:18;13.70;1.00
506;DHT22;551;48.524;9.056;2022-10-22T05:11:46;13.70;1.00
506;DHT22;551;48.524;9.056;2022-10-22T05:14:23;13.70;1.00
506;DHT22;551;48.524;9.056;2022-10-22T05:16:49;13.80;1.00
506;DHT22;551;48.524;9.056;2022-10-22T05:19:27;13.80;1.00
506;DHT22;551;48.524;9.056;2022-10-22T05:21:57;13.90;1.00
506;DHT22;551;48.524;9.056;2022-10-22T05:24:23;13.90;1.00
506;DHT22;551;48.524;9.056;2022-10-22T05:26:50;13.80;1.00
506;DHT22;551;48.524;9.056;2022-10-22T05:29:16;13.60;1.00
506;DHT22;551;48.524;9.056;2022-10-22T05:31:42;13.90;1.00
506;DHT22;551;48.524;9.056;2022-10-22T05:34:08;13.80;1.00
506;DHT22;551;48.524;9.056;2022-10-22T05:36:33;13.70;1.00
506;DHT22;551;48.524;9.056;2022-10-22T05:38:59;13.70;1.00
506;DHT22;551;48.524;9.056;2022-10-22T05:41:25;13.80;1.00
506;DHT22;551;48.524;9.056;2022-10-22T05:43:54;13.80;1.00
506;DHT22;551;48.524;9.056;2022-10-22T05:46:22;13.80;1.00
506;DHT22;551;48.524;9.056;2022-10-22T05:48:52;13.80;1.00
506;DHT22;551;48.524;9.056;2022-10-22T05:51:18;13.80;1.00
506;DHT22;551;48.524;9.056;2022-10-22T05:53:45;13.80;1.00
506;DHT22;551;48.524;9.056;2022-10-22T05:56:14;13.80;1.00
506;DHT22;551;48.524;9.056;2022-10-22T05:58:41;13.80;1.00
506;DHT22;551;48.524;9.056;2022-10-22T06:01:16;13.80;1.00
506;DHT22;551;48.524;9.056;2022-10-22T06:03:42;13.70;1.00
506;DHT22;551;48.524;9.056;2022-10-22T06:06:26;13.70;1.00
506;DHT22;551;48.524;9.056;2022-10-22T06:08:53;13.70;1.00
506;DHT22;551;48.524;9.056;2022-10-22T06:11:20;13.60;1.00
506;DHT22;551;48.524;9.056;2022-10-22T06:13:47;13.60;1.00
506;DHT22;551;48.524;9.056;2022-10-22T06:16:13;13.60;1.00
506;DHT22;551;48.524;9.056;2022-10-22T06:18:39;13.60;1.00
506;DHT22;551;48.524;9.056;2022-10-22T06:21:06;13.70;1.00
506;DHT22;551;48.524;9.056;2022-10-22T06:23:32;13.70;1.00
506;DHT22;551;48.524;9.056;2022-10-22T06:25:58;13.70;1.00
506;DHT22;551;48.524;9.056;2022-10-22T06:28:24;13.90;1.00
506;DHT22;551;48.524;9.056;2022-10-22T06:30:49;13.80;1.00
506;DHT22;551;48.524;9.056;2022-10-22T06:33:15;13.80;1.00
506;DHT22;551;48.524;9.056;2022-10-22T06:35:41;13.80;1.00
506;DHT22;551;48.524;9.056;2022-10-22T06:38:06;13.80;1.00
506;DHT22;551;48.524;9.056;2022-10-22T06:40:32;14.20;1.00
506;DHT22;551;48.524;9.056;2022-10-22T06:42:59;14.00;1.00
506;DHT22;551;48.524;9.056;2022-10-22T06:45:24;14.20;1.00
506;DHT22;551;48.524;9.056;2022-10-22T06:47:50;14.10;1.00
506;DHT22;551;48.524;9.056;2022-10-22T06:50:16;14.20;1.00
506;DHT22;551;48.524;9.056;2022-10-22T06:52:41;14.30;1.00
506;DHT22;551;48.524;9.056;2022-10-22T06:55:07;14.30;1.00
506;DHT22;551;48.524;9.056;2022-10-22T06:57:33;14.30;1.00
506;DHT22;551;48.524;9.056;2022-10-22T06:59:58;14.30;1.00
506;DHT22;551;48.524;9.056;2022-10-22T07:02:24;14.50;1.00
506;DHT22;551;48.524;9.056;2022-10-22T07:04:49;14.40;1.00
506;DHT22;551;48.524;9.056;2022-10-22T07:07:15;14.40;1.00
506;DHT22;551;48.524;9.056;2022-10-22T07:09:40;14.40;1.00
506;DHT22;551;48.524;9.056;2022-10-22T07:12:06;14.40;1.00
506;DHT22;551;48.524;9.056;2022-10-22T07:14:31;14.50;1.00
506;DHT22;551;48.524;9.056;2022-10-22T07:16:57;14.60;1.00
506;DHT22;551;48.524;9.056;2022-10-22T07:19:22;14.60;1.00
506;DHT22;551;48.524;9.056;2022-10-22T07:21:48;14.60;1.00
506;DHT22;551;48.524;9.056;2022-10-22T07:24:13;14.70;1.00
506;DHT22;551;48.524;9.056;2022-10-22T07:26:39;14.70;1.00
506;DHT22;551;48.524;9.056;2022-10-22T07:29:05;14.70;1.00
506;DHT22;551;48.524;9.056;2022-10-22T07:31:30;14.90;1.00
506;DHT22;551;48.524;9.056;2022-10-22T07:33:56;15.00;1.00
506;DHT22;551;48.524;9.056;2022-10-22T07:36:22;15.20;1.00
506;DHT22;551;48.524;9.056;2022-10-22T07:38:53;15.30;1.00
506;DHT22;551;48.524;9.056;2022-10-22T07:41:18;15.50;1.00
506;DHT22;551;48.524;9.056;2022-10-22T07:43:44;15.80;1.00
506;DHT22;551;48.524;9.056;2022-10-22T07:46:10;16.10;1.00
506;DHT22;551;48.524;9.056;2022-10-22T07:48:36;16.30;1.00
506;DHT22;551;48.524;9.056;2022-10-22T07:51:02;16.70;1.00
506;DHT22;551;48.524;9.056;2022-10-22T07:53:28;17.50;1.00
506;DHT22;551;48.524;9.056;2022-10-22T07:55:54;18.10;1.00
506;DHT22;551;48.524;9.056;2022-10-22T07:58:20;18.90;1.00
506;DHT22;551;48.524;9.056;2022-10-22T08:00:46;19.40;1.00
506;DHT22;551;48.524;9.056;2022-10-22T08:03:13;20.60;1.00
506;DHT22;551;48.524;9.056;2022-10-22T08:05:40;21.60;1.00
506;DHT22;551;48.524;9.056;2022-10-22T08:08:08;22.00;1.00
506;DHT22;551;48.524;9.056;2022-10-22T08:10:34;22.50;1.00
506;DHT22;551;48.524;9.056;2022-10-22T08:12:59;23.30;1.00
506;DHT22;551;48.524;9.056;2022-10-22T08:15:25;24.50;1.00
506;DHT22;551;48.524;9.056;2022-10-22T08:17:51;25.90;1.00
506;DHT22;551;48.524;9.056;2022-10-22T08:20:17;26.80;1.00
506;DHT22;551;48.524;9.056;2022-10-22T08:22:44;28.20;1.00
506;DHT22;551;48.524;9.056;2022-10-22T08:25:10;28.60;1.00
506;DHT22;551;48.524;9.056;2022-10-22T08:27:36;28.40;1.00
506;DHT22;551;48.524;9.056;2022-10-22T12:23:46;35.50;1.00
506;DHT22;551;48.524;9.056;2022-10-22T12:26:24;35.20;1.00
506;DHT22;551;48.524;9.056;2022-10-22T12:28:50;35.70;1.00
506;DHT22;551;48.524;9.056;2022-10-22T12:31:16;35.90;1.00
506;DHT22;551;48.524;9.056;2022-10-22T12:33:42;35.40;1.00
506;DHT22;551;48.524;9.056;2022-10-22T12:36:16;36.10;1.00
506;DHT22;551;48.524;9.056;2022-10-22T12:48:32;35.40;1.00
506;DHT22;551;48.524;9.056;2022-10-22T12:51:02;35.80;1.00
506;DHT22;551;48.524;9.056;2022-10-22T12:53:36;35.60;1.00
506;DHT22;551;48.524;9.056;2022-10-22T12:56:06;35.60;1.00
506;DHT22;551;48.524;9.056;2022-10-22T12:58:40;34.90;1.00
506;DHT22;551;48.524;9.056;2022-10-22T13:01:10;35.60;1.00
506;DHT22;551;48.524;9.056;2022-10-22T13:08:44;35.80;1.00
506;DHT22;551;48.524;9.056;2022-10-22T13:11:19;35.70;1.00
506;DHT22;551;48.524;9.056;2022-10-22T13:13:45;35.90;1.00
506;DHT22;551;48.524;9.056;2022-10-22T13:21:37;35.20;1.00
506;DHT22;551;48.524;9.056;2022-10-22T13:24:20;35.10;1.00
506;DHT22;551;48.524;9.056;2022-10-22T13:26:48;34.60;1.00
506;DHT22;551;48.524;9.056;2022-10-22T13:29:16;34.20;1.00
506;DHT22;551;48.524;9.056;2022-10-22T13:31:46;34.20;1.00
506;DHT22;551;48.524;9.056;2022-10-22T13:34:19;33.60;1.00
506;DHT22;551;48.524;9.056;2022-10-22T13:36:45;33.70;1.00
506;DHT22;551;48.524;9.056;2022-10-22T13:39:18;33.30;1.00
506;DHT22;551;48.524;9.056;2022-10-22T13:41:44;33.40;1.00
506;DHT22;551;48.524;9.056;2022-10-22T13:44:09;33.60;1.00
506;DHT22;551;48.524;9.056;2022-10-22T13:46:35;33.60;1.00
506;DHT22;551;48.524;9.056;2022-10-22T13:49:08;34.20;1.00
506;DHT22;551;48.524;9.056;2022-10-22T13:51:37;33.50;1.00
506;DHT22;551;48.524;9.056;2022-10-22T13:54:09;32.50;1.00
506;DHT22;551;48.524;9.056;2022-10-22T13:56:37;31.60;1.00
506;DHT22;551;48.524;9.056;2022-10-22T13:59:03;30.50;1.00
506;DHT22;551;48.524;9.056;2022-10-22T14:01:28;29.80;1.00
506;DHT22;551;48.524;9.056;2022-10-22T14:03:56;28.70;1.00
506;DHT22;551;48.524;9.056;2022-10-22T14:06:25;28.20;1.00
506;DHT22;551;48.524;9.056;2022-10-22T14:08:59;27.50;1.00
506;DHT22;551;48.524;9.056;2022-10-22T14:11:26;26.80;1.00
506;DHT22;551;48.524;9.056;2022-10-22T14:13:54;26.10;1.00
506;DHT22;551;48.524;9.056;2022-10-22T15:41:55;21.50;1.00
506;DHT22;551;48.524;9.056;2022-10-22T15:44:26;21.50;1.00
506;DHT22;551;48.524;9.056;2022-10-22T15:46:52;21.30;1.00
506;DHT22;551;48.524;9.056;2022-10-22T15:49:22;21.10;1.00
506;DHT22;551;48.524;9.056;2022-10-22T15:51:48;21.00;1.00
506;DHT22;551;48.524;9.056;2022-10-22T15:54:15;20.80;1.00
506;DHT22;551;48.524;9.056;2022-10-22T15:56:42;20.60;1.00
506;DHT22;551;48.524;9.056;2022-10-22T15:59:09;20.40;1.00
506;DHT22;551;48.524;9.056;2022-10-22T16:01:35;20.20;1.00
506;DHT22;551;48.524;9.056;2022-10-22T16:04:00;20.00;1.00
506;DHT22;551;48.524;9.056;2022-10-22T16:06:31;19.70;1.00
506;DHT22;551;48.524;9.056;2022-10-22T16:08:59;19.60;1.00
506;DHT22;551;48.524;9.056;2022-10-22T16:11:26;19.40;1.00
506;DHT22;551;48.524;9.056;2022-10-22T16:13:56;19.20;1.00
506;DHT22;551;48.524;9.056;2022-10-22T16:16:27;19.00;1.00
506;DHT22;551;48.524;9.056;2022-10-22T16:18:54;18.90;1.00
506;DHT22;551;48.524;9.056;2022-10-22T16:21:20;18.70;1.00
506;DHT22;551;48.524;9.056;2022-10-22T16:23:47;18.60;1.00
506;DHT22;551;48.524;9.056;2022-10-22T16:26:13;18.40;1.00
506;DHT22;551;48.524;9.056;2022-10-22T16:28:39;18.30;1.00
506;DHT22;551;48.524;9.056;2022-10-22T16:31:07;18.20;1.00
506;DHT22;551;48.524;9.056;2022-10-22T16:33:37;18.10;1.00
506;DHT22;551;48.524;9.056;2022-10-22T16:36:10;18.20;1.00
506;DHT22;551;48.524;9.056;2022-10-22T16:38:36;17.80;1.00
506;DHT22;551;48.524;9.056;2022-10-22T16:41:09;17.80;1.00
506;DHT22;551;48.524;9.056;2022-10-22T16:43:36;17.70;1.00
506;DHT22;551;48.524;9.056;2022-10-22T16:46:01;17.60;1.00
506;DHT22;551;48.524;9.056;2022-10-22T16:48:27;17.40;1.00
506;DHT22;551;48.524;9.056;2022-10-22T16:50:52;17.30;1.00
506;DHT22;551;48.524;9.056;2022-10-22T16:53:18;17.40;1.00
506;DHT22;551;48.524;9.056;2022-10-22T16:55:43;17.20;1.00
506;DHT22;551;48.524;9.056;2022-10-22T16:58:09;17.20;1.00
506;DHT22;551;48.524;9.056;2022-10-22T17:00:34;17.00;1.00
506;DHT22;551;48.524;9.056;2022-10-22T17:03:00;17.00;1.00
506;DHT22;551;48.524;9.056;2022-10-22T17:05:26;16.80;1.00
506;DHT22;551;48.524;9.056;2022-10-22T17:07:52;16.60;1.00
506;DHT22;551;48.524;9.056;2022-10-22T17:10:19;16.50;1.00
506;DHT22;551;48.524;9.056;2022-10-22T17:12:46;16.60;1.00
506;DHT22;551;48.524;9.056;2022-10-22T17:15:11;16.60;1.00
506;DHT22;551;48.524;9.056;2022-10-22T17:17:37;16.60;1.00
506;DHT22;551;48.524;9.056;2022-10-22T17:20:04;16.50;1.00
506;DHT22;551;48.524;9.056;2022-10-22T17:22:30;16.40;1.00
506;DHT22;551;48.524;9.056;2022-10-22T17:25:08;16.30;1.00
506;DHT22;551;48.524;9.056;2022-10-22T17:27:35;16.30;1.00
506;DHT22;551;48.524;9.056;2022-10-22T17:30:01;16.30;1.00
506;DHT22;551;48.524;9.056;2022-10-22T17:32:26;16.20;1.00
506;DHT22;551;48.524;9.056;2022-10-22T17:34:53;16.10;1.00
506;DHT22;551;48.524;9.056;2022-10-22T17:37:19;16.10;1.00
506;DHT22;551;48.524;9.056;2022-10-22T17:39:44;16.00;1.00
506;DHT22;551;48.524;9.056;2022-10-22T17:42:10;16.00;1.00
506;DHT22;551;48.524;9.056;2022-10-22T17:44:36;15.80;1.00
506;DHT22;551;48.524;9.056;2022-10-22T17:47:01;15.90;1.00
506;DHT22;551;48.524;9.056;2022-10-22T17:49:28;15.90;1.00
506;DHT22;551;48.524;9.056;2022-10-22T17:51:54;15.80;1.00
506;DHT22;551;48.524;9.056;2022-10-22T17:54:19;15.70;1.00
506;DHT22;551;48.524;9.056;2022-10-22T17:56:45;15.70;1.00
506;DHT22;551;48.524;9.056;2022-10-22T17:59:12;15.70;1.00
506;DHT22;551;48.524;9.056;2022-10-22T18:01:39;15.50;1.00
506;DHT22;551;48.524;9.056;2022-10-22T18:04:12;15.50;1.00
506;DHT22;551;48.524;9.056;2022-10-22T18:06:38;15.40;1.00
506;DHT22;551;48.524;9.056;2022-10-22T18:09:08;15.50;1.00
506;DHT22;551;48.524;9.056;2022-10-22T18:11:34;15.30;1.00
506;DHT22;551;48.524;9.056;2022-10-22T18:14:00;15.50;1.00
506;DHT22;551;48.524;9.056;2022-10-22T18:16:26;15.20;1.00
506;DHT22;551;48.524;9.056;2022-10-22T18:18:54;15.30;1.00
506;DHT22;551;48.524;9.056;2022-10-22T18:21:22;15.30;1.00
506;DHT22;551;48.524;9.056;2022-10-22T18:23:47;15.30;1.00
506;DHT22;551;48.524;9.056;2022-10-22T18:26:14;15.20;1.00
506;DHT22;551;48.524;9.056;2022-10-22T18:28:40;15.20;1.00
506;DHT22;551;48.524;9.056;2022-10-22T18:31:11;15.00;1.00
506;DHT22;551;48.524;9.056;2022-10-22T18:33:39;15.30;1.00
506;DHT22;551;48.524;9.056;2022-10-22T18:36:09;15.10;1.00
506;DHT22;551;48.524;9.056;2022-10-22T18:38:35;15.10;1.00
506;DHT22;551;48.524;9.056;2022-10-22T18:41:04;15.00;1.00
506;DHT22;551;48.524;9.056;2022-10-22T18:43:30;15.00;1.00
506;DHT22;551;48.524;9.056;2022-10-22T18:45:56;15.10;1.00
506;DHT22;551;48.524;9.056;2022-10-22T18:48:22;14.80;1.00
506;DHT22;551;48.524;9.056;2022-10-22T18:50:57;14.90;1.00
506;DHT22;551;48.524;9.056;2022-10-22T18:53:23;14.80;1.00
506;DHT22;551;48.524;9.056;2022-10-22T18:55:48;14.70;1.00
506;DHT22;551;48.524;9.056;2022-10-22T18:58:14;14.70;1.00
506;DHT22;551;48.524;9.056;2022-10-22T19:00:40;15.30;1.00
506;DHT22;551;48.524;9.056;2022-10-22T19:03:05;14.60;1.00
506;DHT22;551;48.524;9.056;2022-10-22T19:05:31;14.70;1.00
506;DHT22;551;48.524;9.056;2022-10-22T19:07:57;14.70;1.00
506;DHT22;551;48.524;9.056;2022-10-22T19:10:22;14.60;1.00
506;DHT22;551;48.524;9.056;2022-10-22T19:12:48;14.50;1.00
506;DHT22;551;48.524;9.056;2022-10-22T19:15:13;14.80;1.00
506;DHT22;551;48.524;9.056;2022-10-22T19:17:39;14.70;1.00
506;DHT22;551;48.524;9.056;2022-10-22T19:20:05;14.60;1.00
506;DHT22;551;48.524;9.056;2022-10-22T19:22:31;14.60;1.00
506;DHT22;551;48.524;9.056;2022-10-22T19:24:56;14.50;1.00
506;DHT22;551;48.524;9.056;2022-10-22T19:27:23;14.50;1.00
506;DHT22;551;48.524;9.056;2022-10-22T19:29:49;14.60;1.00
506;DHT22;551;48.524;9.056;2022-10-22T19:32:15;14.50;1.00
506;DHT22;551;48.524;9.056;2022-10-22T19:34:44;14.40;1.00
506;DHT22;551;48.524;9.056;2022-10-22T19:37:10;14.40;1.00
506;DHT22;551;48.524;9.056;2022-10-22T19:39:36;14.30;1.00
506;DHT22;551;48.524;9.056;2022-10-22T19:42:01;14.30;1.00
506;DHT22;551;48.524;9.056;2022-10-22T19:44:28;14.40;1.00
506;DHT22;551;48.524;9.056;2022-10-22T19:46:54;14.30;1.00
506;DHT22;551;48.524;9.056;2022-10-22T19:49:19;14.50;1.00
506;DHT22;551;48.524;9.056;2022-10-22T19:51:45;14.30;1.00
506;DHT22;551;48.524;9.056;2022-10-22T19:54:12;14.10;1.00
506;DHT22;551;48.524;9.056;2022-10-22T19:56:43;14.10;1.00
506;DHT22;551;48.524;9.056;2022-10-22T19:59:09;14.20;1.00
506;DHT22;551;48.524;9.056;2022-10-22T20:01:35;14.10;1.00
506;DHT22;551;48.524;9.056;2022-10-22T20:04:04;14.10;1.00
506;DHT22;551;48.524;9.056;2022-10-22T20:06:29;14.10;1.00
506;DHT22;551;48.524;9.056;2022-10-22T20:08:56;14.00;1.00
506;DHT22;551;48.524;9.056;2022-10-22T20:11:24;14.00;1.00
506;DHT22;551;48.524;9.056;2022-10-22T20:13:50;14.00;1.00
506;DHT22;551;48.524;9.056;2022-10-22T20:16:18;14.00;1.00
506;DHT22;551;48.524;9.056;2022-10-22T20:18:43;13.90;1.00
506;DHT22;551;48.524;9.056;2022-10-22T20:21:12;13.90;1.00
506;DHT22;551;48.524;9.056;2022-10-22T20:23:38;13.90;1.00
506;DHT22;551;48.524;9.056;2022-10-22T20:26:04;13.80;1.00
506;DHT22;551;48.524;9.056;2022-10-22T20:28:30;13.80;1.00
506;DHT22;551;48.524;9.056;2022-10-22T20:30:56;13.70;1.00
506;DHT22;551;48.524;9.056;2022-10-22T20:33:22;13.70;1.00
506;DHT22;551;48.524;9.056;2022-10-22T20:35:58;13.70;1.00
506;DHT22;551;48.524;9.056;2022-10-22T20:38:24;13.60;1.00
506;DHT22;551;48.524;9.056;2022-10-22T20:41:01;13.90;1.00
506;DHT22;551;48.524;9.056;2022-10-22T20:43:26;13.60;1.00
506;DHT22;551;48.524;9.056;2022-10-22T20:45:52;13.60;1.00
506;DHT22;551;48.524;9.056;2022-10-22T20:48:18;13.50;1.00
506;DHT22;551;48.524;9.056;2022-10-22T20:50:43;13.50;1.00
506;DHT22;551;48.524;9.056;2022-10-22T20:53:09;13.40;1.00
506;DHT22;551;48.524;9.056;2022-10-22T20:55:34;13.40;1.00
506;DHT22;551;48.524;9.056;2022-10-22T20:58:00;13.40;1.00
506;DHT22;551;48.524;9.056;2022-10-22T21:00:25;13.40;1.00
506;DHT22;551;48.524;9.056;2022-10-22T21:02:51;13.40;1.00
506;DHT22;551;48.524;9.056;2022-10-22T21:05:17;13.20;1.00
506;DHT22;551;48.524;9.056;2022-10-22T21:07:42;13.10;1.00
506;DHT22;551;48.524;9.056;2022-10-22T21:10:08;13.10;1.00
506;DHT22;551;48.524;9.056;2022-10-22T21:12:33;13.10;1.00
506;DHT22;551;48.524;9.056;2022-10-22T21:14:59;13.40;1.00
506;DHT22;551;48.524;9.056;2022-10-22T21:17:25;13.10;1.00
506;DHT22;551;48.524;9.056;2022-10-22T21:19:50;13.00;1.00
506;DHT22;551;48.524;9.056;2022-10-22T21:22:16;13.00;1.00
506;DHT22;551;48.524;9.056;2022-10-22T21:24:41;13.00;1.00
506;DHT22;551;48.524;9.056;2022-10-22T21:27:07;12.90;1.00
506;DHT22;551;48.524;9.056;2022-10-22T21:29:32;13.00;1.00
506;DHT22;551;48.524;9.056;2022-10-22T21:31:58;13.00;1.00
506;DHT22;551;48.524;9.056;2022-10-22T21:34:23;12.90;1.00
506;DHT22;551;48.524;9.056;2022-10-22T21:36:49;12.90;1.00
506;DHT22;551;48.524;9.056;2022-10-22T21:39:14;12.90;1.00
506;DHT22;551;48.524;9.056;2022-10-22T21:41:40;12.90;1.00
506;DHT22;551;48.524;9.056;2022-10-22T21:44:05;12.90;1.00
506;DHT22;551;48.524;9.056;2022-10-22T21:46:31;12.80;1.00
506;DHT22;551;48.524;9.056;2022-10-22T21:49:03;13.00;1.00
506;DHT22;551;48.524;9.056;2022-10-22T21:51:31;12.90;1.00
506;DHT22;551;48.524;9.056;2022-10-22T21:53:56;12.90;1.00
506;DHT22;551;48.524;9.056;2022-10-22T21:56:24;12.90;1.00
506;DHT22;551;48.524;9.056;2022-10-22T21:58:50;12.90;1.00
506;DHT22;551;48.524;9.056;2022-10-22T22:01:16;12.90;1.00
506;DHT22;551;48.524;9.056;2022-10-22T22:03:43;12.90;1.00
506;DHT22;551;48.524;9.056;2022-10-22T22:06:10;12.90;1.00
506;DHT22;551;48.524;9.056;2022-10-22T22:08:36;12.90;1.00
506;DHT22;551;48.524;9.056;2022-10-22T22:11:04;13.30;1.00
506;DHT22;551;48.524;9.056;2022-10-22T22:13:30;12.90;1.00
506;DHT22;551;48.524;9.056;2022-10-22T22:16:01;12.90;1.00
506;DHT22;551;48.524;9.056;2022-10-22T22:18:28;12.90;1.00
506;DHT22;551;48.524;9.056;2022-10-22T22:20:54;12.90;1.00
506;DHT22;551;48.524;9.056;2022-10-22T22:23:20;12.80;1.00
506;DHT22;551;48.524;9.056;2022-10-22T22:25:45;12.80;1.00
506;DHT22;551;48.524;9.056;2022-10-22T22:28:11;12.80;1.00
506;DHT22;551;48.524;9.056;2022-10-22T22:30:36;12.70;1.00
506;DHT22;551;48.524;9.056;2022-10-22T22:33:02;12.70;1.00
506;DHT22;551;48.524;9.056;2022-10-22T22:35:27;12.70;1.00
506;DHT22;551;48.524;9.056;2022-10-22T22:37:53;12.60;1.00
506;DHT22;551;48.524;9.056;2022-10-22T22:40:20;12.60;1.00
506;DHT22;551;48.524;9.056;2022-10-22T22:42:46;12.60;1.00
506;DHT22;551;48.524;9.056;2022-10-22T22:45:11;12.50;1.00
506;DHT22;551;48.524;9.056;2022-10-22T22:47:36;12.40;1.00
506;DHT22;551;48.524;9.056;2022-10-22T22:50:02;12.70;1.00
506;DHT22;551;48.524;9.056;2022-10-22T22:52:28;12.50;1.00
506;DHT22;551;48.524;9.056;2022-10-22T22:54:53;12.30;1.00
506;DHT22;551;48.524;9.056;2022-10-22T22:57:19;12.30;1.00